sensor_id;sensor_type;location;lat;lon;timestamp;pressure;altitude;pressure_sealevel;temperature;humidity
22662;BME280;11497;52.222;21.246;2023-03-24T00:01:17;99668.41;;;11.40;79.44
22662;BME280;11497;52.222;21.246;2023-03-24T00:03:45;99666.34;;;11.28;79.54
22662;BME280;11497;52.222;21.246;2023-03-24T00:06:15;99665.78;;;11.40;79.67
22662;BME280;11497;52.222;21.246;2023-03-24T00:08:45;99664.09;;;11.39;79.64
22662;BME280;11497;52.222;21.246;2023-03-24T00:11:15;99672.94;;;11.37;79.79
22662;BME280;11497;52.222;21.246;2023-03-24T00:13:45;99674.41;;;11.42;79.73
22662;BME280;11497;52.222;21.246;2023-03-24T00:16:18;99667.59;;;11.57;79.40
22662;BME280;11497;52.222;21.246;2023-03-24T00:18:46;99663.13;;;11.59;78.87
22662;BME280;11497;52.222;21.246;2023-03-24T00:21:22;99667.81;;;11.52;78.73
22662;BME280;11497;52.222;21.246;2023-03-24T00:23:54;99673.50;;;11.43;78.78
22662;BME280;11497;52.222;21.246;2023-03-24T00:26:23;99663.00;;;11.43;79.02
22662;BME280;11497;52.222;21.246;2023-03-24T00:28:52;99676.13;;;11.43;78.99
22662;BME280;11497;52.222;21.246;2023-03-24T00:31:21;99673.19;;;11.49;79.11
22662;BME280;11497;52.222;21.246;2023-03-24T00:33:51;99671.13;;;11.56;79.10
22662;BME280;11497;52.222;21.246;2023-03-24T00:36:24;99673.59;;;11.59;78.93
22662;BME280;11497;52.222;21.246;2023-03-24T00:38:53;99681.19;;;11.65;78.72
22662;BME280;11497;52.222;21.246;2023-03-24T00:41:22;99680.94;;;11.70;78.70
22662;BME280;11497;52.222;21.246;2023-03-24T00:43:56;99676.44;;;11.72;78.45
22662;BME280;11497;52.222;21.246;2023-03-24T00:46:25;99682.25;;;11.61;78.42
22662;BME280;11497;52.222;21.246;2023-03-24T00:49:00;99672.59;;;11.61;78.42
22662;BME280;11497;52.222;21.246;2023-03-24T00:51:35;99673.31;;;11.65;78.67
22662;BME280;11497;52.222;21.246;2023-03-24T00:54:03;99673.97;;;11.51;78.27
22662;BME280;11497;52.222;21.246;2023-03-24T00:56:34;99675.00;;;11.30;78.27
22662;BME280;11497;52.222;21.246;2023-03-24T00:59:04;99674.81;;;11.16;79.11
22662;BME280;11497;52.222;21.246;2023-03-24T01:01:33;99669.22;;;11.05;79.69
22662;BME280;11497;52.222;21.246;2023-03-24T01:04:03;99657.34;;;10.97;80.21
22662;BME280;11497;52.222;21.246;2023-03-24T01:06:37;99656.06;;;10.87;80.69
22662;BME280;11497;52.222;21.246;2023-03-24T01:09:05;99653.59;;;10.84;81.06
22662;BME280;11497;52.222;21.246;2023-03-24T01:11:36;99651.75;;;10.68;81.47
22662;BME280;11497;52.222;21.246;2023-03-24T01:14:06;99657.25;;;10.61;81.77
22662;BME280;11497;52.222;21.246;2023-03-24T01:16:34;99653.41;;;10.50;82.36
22662;BME280;11497;52.222;21.246;2023-03-24T01:19:03;99654.41;;;10.47;82.94
22662;BME280;11497;52.222;21.246;2023-03-24T01:21:31;99662.19;;;10.49;83.12
22662;BME280;11497;52.222;21.246;2023-03-24T01:24:02;99652.00;;;10.43;83.44
22662;BME280;11497;52.222;21.246;2023-03-24T01:26:32;99655.81;;;10.36;83.80
22662;BME280;11497;52.222;21.246;2023-03-24T01:28:59;99656.34;;;10.23;84.45
22662;BME280;11497;52.222;21.246;2023-03-24T01:31:27;99660.91;;;10.18;84.71
22662;BME280;11497;52.222;21.246;2023-03-24T01:33:55;99656.84;;;10.11;85.13
22662;BME280;11497;52.222;21.246;2023-03-24T01:36:23;99651.69;;;10.10;85.44
22662;BME280;11497;52.222;21.246;2023-03-24T01:38:51;99655.41;;;10.04;85.59
22662;BME280;11497;52.222;21.246;2023-03-24T01:41:19;99655.66;;;9.98;85.94
22662;BME280;11497;52.222;21.246;2023-03-24T01:43:46;99654.50;;;9.85;86.56
22662;BME280;11497;52.222;21.246;2023-03-24T01:46:16;99656.81;;;9.71;86.79
22662;BME280;11497;52.222;21.246;2023-03-24T01:51:29;99640.22;;;9.51;87.69
22662;BME280;11497;52.222;21.246;2023-03-24T01:54:07;99656.81;;;9.50;88.16
22662;BME280;11497;52.222;21.246;2023-03-24T01:56:40;99645.81;;;9.42;88.55
22662;BME280;11497;52.222;21.246;2023-03-24T01:59:12;99651.53;;;9.30;89.05
22662;BME280;11497;52.222;21.246;2023-03-24T02:01:53;99649.34;;;9.19;89.17
22662;BME280;11497;52.222;21.246;2023-03-24T02:04:45;99654.16;;;9.08;89.63
22662;BME280;11497;52.222;21.246;2023-03-24T02:07:31;99645.75;;;9.00;89.97
22662;BME280;11497;52.222;21.246;2023-03-24T02:10:05;99642.75;;;8.87;90.39
22662;BME280;11497;52.222;21.246;2023-03-24T02:12:33;99656.59;;;8.89;91.17
22662;BME280;11497;52.222;21.246;2023-03-24T02:15:05;99654.28;;;9.05;91.50
22662;BME280;11497;52.222;21.246;2023-03-24T02:23:22;99636.31;;;8.74;92.79
22662;BME280;11497;52.222;21.246;2023-03-24T02:32:05;99617.88;;;8.79;93.97
22662;BME280;11497;52.222;21.246;2023-03-24T02:42:44;99626.56;;;8.56;95.96
22662;BME280;11497;52.222;21.246;2023-03-24T02:48:07;99633.16;;;8.66;96.67
22662;BME280;11497;52.222;21.246;2023-03-24T02:53:23;99638.72;;;8.57;96.98
22662;BME280;11497;52.222;21.246;2023-03-24T02:59:16;99637.22;;;8.50;97.65
22662;BME280;11497;52.222;21.246;2023-03-24T03:01:56;99633.59;;;8.54;97.75
22662;BME280;11497;52.222;21.246;2023-03-24T03:04:55;99630.66;;;8.40;97.90
22662;BME280;11497;52.222;21.246;2023-03-24T03:07:26;99624.03;;;8.29;98.26
22662;BME280;11497;52.222;21.246;2023-03-24T03:10:18;99630.44;;;8.21;98.38
22662;BME280;11497;52.222;21.246;2023-03-24T03:12:51;99619.38;;;8.14;98.60
22662;BME280;11497;52.222;21.246;2023-03-24T03:15:34;99633.53;;;8.07;98.78
22662;BME280;11497;52.222;21.246;2023-03-24T03:18:13;99631.84;;;8.06;99.06
22662;BME280;11497;52.222;21.246;2023-03-24T03:20:47;99634.75;;;7.97;99.20
22662;BME280;11497;52.222;21.246;2023-03-24T03:23:30;99646.28;;;7.90;99.27
22662;BME280;11497;52.222;21.246;2023-03-24T03:26:02;99644.59;;;7.89;99.47
22662;BME280;11497;52.222;21.246;2023-03-24T03:28:35;99651.59;;;7.87;99.83
22662;BME280;11497;52.222;21.246;2023-03-24T03:31:14;99645.75;;;7.80;100.00
22662;BME280;11497;52.222;21.246;2023-03-24T03:33:53;99652.72;;;7.80;100.00
22662;BME280;11497;52.222;21.246;2023-03-24T03:39:22;99649.09;;;7.84;100.00
22662;BME280;11497;52.222;21.246;2023-03-24T03:41:52;99649.94;;;7.84;100.00
22662;BME280;11497;52.222;21.246;2023-03-24T03:44:20;99643.28;;;7.77;100.00
22662;BME280;11497;52.222;21.246;2023-03-24T03:46:48;99652.59;;;7.83;100.00
22662;BME280;11497;52.222;21.246;2023-03-24T03:49:23;99649.19;;;7.81;100.00
22662;BME280;11497;52.222;21.246;2023-03-24T03:51:53;99651.81;;;7.81;100.00
22662;BME280;11497;52.222;21.246;2023-03-24T03:54:23;99650.22;;;7.77;100.00
22662;BME280;11497;52.222;21.246;2023-03-24T03:56:52;99645.03;;;7.77;100.00
22662;BME280;11497;52.222;21.246;2023-03-24T03:59:31;99643.31;;;7.76;100.00
22662;BME280;11497;52.222;21.246;2023-03-24T04:02:33;99650.34;;;7.74;100.00
22662;BME280;11497;52.222;21.246;2023-03-24T04:08:14;99642.66;;;7.94;100.00
22662;BME280;11497;52.222;21.246;2023-03-24T04:14:09;99646.97;;;7.95;100.00
22662;BME280;11497;52.222;21.246;2023-03-24T04:25:19;99644.16;;;8.01;100.00
22662;BME280;11497;52.222;21.246;2023-03-24T04:28:04;99641.41;;;8.06;100.00
22662;BME280;11497;52.222;21.246;2023-03-24T04:30:43;99631.25;;;7.98;100.00
22662;BME280;11497;52.222;21.246;2023-03-24T04:33:24;99634.59;;;8.01;100.00
22662;BME280;11497;52.222;21.246;2023-03-24T04:36:02;99634.38;;;8.08;100.00
22662;BME280;11497;52.222;21.246;2023-03-24T04:38:48;99628.31;;;8.07;100.00
22662;BME280;11497;52.222;21.246;2023-03-24T04:41:31;99625.03;;;8.02;100.00
22662;BME280;11497;52.222;21.246;2023-03-24T04:44:10;99617.38;;;7.97;100.00
22662;BME280;11497;52.222;21.246;2023-03-24T04:46:55;99616.09;;;8.09;100.00
22662;BME280;11497;52.222;21.246;2023-03-24T04:49:24;99616.09;;;8.09;100.00
22662;BME280;11497;52.222;21.246;2023-03-24T04:51:54;99617.78;;;8.10;100.00
22662;BME280;11497;52.222;21.246;2023-03-24T04:54:26;99618.31;;;8.20;100.00
22662;BME280;11497;52.222;21.246;2023-03-24T04:57:02;99605.09;;;8.24;100.00
22662;BME280;11497;52.222;21.246;2023-03-24T04:59:39;99604.97;;;8.27;100.00
22662;BME280;11497;52.222;21.246;2023-03-24T05:02:08;99612.50;;;8.37;100.00
22662;BME280;11497;52.222;21.246;2023-03-24T05:04:58;99609.47;;;8.49;100.00
22662;BME280;11497;52.222;21.246;2023-03-24T05:07:32;99617.13;;;8.75;100.00
22662;BME280;11497;52.222;21.246;2023-03-24T05:10:05;99616.22;;;8.76;100.00
22662;BME280;11497;52.222;21.246;2023-03-24T05:12:39;99614.50;;;8.98;100.00
22662;BME280;11497;52.222;21.246;2023-03-24T05:15:30;99597.84;;;9.23;100.00
22662;BME280;11497;52.222;21.246;2023-03-24T05:18:14;99602.88;;;9.49;99.73
22662;BME280;11497;52.222;21.246;2023-03-24T05:20:42;99597.38;;;9.76;98.57
22662;BME280;11497;52.222;21.246;2023-03-24T05:23:16;99601.22;;;10.28;96.13
22662;BME280;11497;52.222;21.246;2023-03-24T05:25:46;99604.63;;;10.49;93.60
22662;BME280;11497;52.222;21.246;2023-03-24T05:28:16;99605.50;;;10.68;91.82
22662;BME280;11497;52.222;21.246;2023-03-24T05:30:44;99601.94;;;10.88;90.25
22662;BME280;11497;52.222;21.246;2023-03-24T05:33:23;99597.25;;;10.94;88.58
22662;BME280;11497;52.222;21.246;2023-03-24T05:35:51;99591.31;;;11.10;87.36
22662;BME280;11497;52.222;21.246;2023-03-24T05:38:19;99600.81;;;10.93;86.91
22662;BME280;11497;52.222;21.246;2023-03-24T05:40:56;99585.66;;;11.00;86.68
22662;BME280;11497;52.222;21.246;2023-03-24T05:43:28;99602.22;;;11.00;86.58
22662;BME280;11497;52.222;21.246;2023-03-24T05:46:14;99593.16;;;11.08;86.45
22662;BME280;11497;52.222;21.246;2023-03-24T05:48:43;99592.84;;;11.14;85.91
22662;BME280;11497;52.222;21.246;2023-03-24T05:51:16;99594.03;;;11.43;85.12
22662;BME280;11497;52.222;21.246;2023-03-24T05:53:46;99586.19;;;11.60;84.11
22662;BME280;11497;52.222;21.246;2023-03-24T05:56:17;99576.56;;;11.60;83.32
22662;BME280;11497;52.222;21.246;2023-03-24T05:58:59;99577.50;;;11.77;82.99
22662;BME280;11497;52.222;21.246;2023-03-24T06:01:54;99584.88;;;12.03;81.68
22662;BME280;11497;52.222;21.246;2023-03-24T06:04:43;99581.50;;;12.01;81.31
22662;BME280;11497;52.222;21.246;2023-03-24T06:07:16;99578.97;;;12.15;80.79
22662;BME280;11497;52.222;21.246;2023-03-24T06:09:45;99578.63;;;12.06;80.43
22662;BME280;11497;52.222;21.246;2023-03-24T06:12:15;99580.66;;;12.16;80.08
22662;BME280;11497;52.222;21.246;2023-03-24T06:14:52;99584.94;;;12.35;79.43
22662;BME280;11497;52.222;21.246;2023-03-24T06:17:22;99584.19;;;12.32;79.21
22662;BME280;11497;52.222;21.246;2023-03-24T06:19:54;99579.06;;;12.47;78.91
22662;BME280;11497;52.222;21.246;2023-03-24T06:22:48;99573.56;;;12.51;78.72
22662;BME280;11497;52.222;21.246;2023-03-24T06:25:22;99583.97;;;12.53;78.66
22662;BME280;11497;52.222;21.246;2023-03-24T06:28:11;99576.34;;;12.64;77.74
22662;BME280;11497;52.222;21.246;2023-03-24T06:30:43;99581.44;;;12.83;77.29
22662;BME280;11497;52.222;21.246;2023-03-24T06:33:18;99577.28;;;12.94;76.23
22662;BME280;11497;52.222;21.246;2023-03-24T06:35:50;99581.97;;;12.89;76.25
22662;BME280;11497;52.222;21.246;2023-03-24T06:38:19;99572.25;;;13.06;75.88
22662;BME280;11497;52.222;21.246;2023-03-24T06:40:46;99581.06;;;13.05;75.69
22662;BME280;11497;52.222;21.246;2023-03-24T06:43:15;99571.59;;;13.02;75.33
22662;BME280;11497;52.222;21.246;2023-03-24T06:45:44;99578.22;;;13.25;75.32
22662;BME280;11497;52.222;21.246;2023-03-24T06:48:22;99576.94;;;13.32;74.57
22662;BME280;11497;52.222;21.246;2023-03-24T06:50:54;99577.50;;;13.37;74.30
22662;BME280;11497;52.222;21.246;2023-03-24T06:53:23;99579.22;;;13.38;73.85
22662;BME280;11497;52.222;21.246;2023-03-24T06:55:51;99572.84;;;13.42;73.51
22662;BME280;11497;52.222;21.246;2023-03-24T06:58:21;99573.78;;;13.41;73.53
22662;BME280;11497;52.222;21.246;2023-03-24T07:01:03;99562.03;;;13.47;72.83
22662;BME280;11497;52.222;21.246;2023-03-24T07:03:54;99570.75;;;13.47;73.44
22662;BME280;11497;52.222;21.246;2023-03-24T07:06:33;99571.31;;;13.38;73.42
22662;BME280;11497;52.222;21.246;2023-03-24T07:09:14;99576.88;;;13.48;73.42
22662;BME280;11497;52.222;21.246;2023-03-24T07:11:41;99573.63;;;13.58;72.84
22662;BME280;11497;52.222;21.246;2023-03-24T07:14:09;99572.50;;;13.62;72.84
22662;BME280;11497;52.222;21.246;2023-03-24T07:16:38;99574.66;;;13.56;72.46
22662;BME280;11497;52.222;21.246;2023-03-24T07:19:26;99586.41;;;13.64;72.22
22662;BME280;11497;52.222;21.246;2023-03-24T07:22:16;99582.88;;;13.80;72.14
22662;BME280;11497;52.222;21.246;2023-03-24T07:25:04;99591.19;;;14.02;71.34
22662;BME280;11497;52.222;21.246;2023-03-24T07:27:46;99585.97;;;13.86;71.22
22662;BME280;11497;52.222;21.246;2023-03-24T07:30:15;99592.16;;;13.71;71.48
22662;BME280;11497;52.222;21.246;2023-03-24T07:32:44;99589.03;;;13.64;71.88
22662;BME280;11497;52.222;21.246;2023-03-24T07:35:12;99591.66;;;13.64;72.28
22662;BME280;11497;52.222;21.246;2023-03-24T07:37:40;99584.38;;;13.70;72.87
22662;BME280;11497;52.222;21.246;2023-03-24T07:40:09;99591.66;;;13.64;73.38
22662;BME280;11497;52.222;21.246;2023-03-24T07:42:42;99596.22;;;13.77;73.92
22662;BME280;11497;52.222;21.246;2023-03-24T07:45:30;99600.50;;;13.63;74.47
22662;BME280;11497;52.222;21.246;2023-03-24T07:47:59;99586.22;;;13.68;75.13
22662;BME280;11497;52.222;21.246;2023-03-24T07:50:34;99592.03;;;13.58;75.38
22662;BME280;11497;52.222;21.246;2023-03-24T07:53:09;99590.16;;;13.60;76.29
22662;BME280;11497;52.222;21.246;2023-03-24T07:55:38;99587.78;;;13.56;77.18
22662;BME280;11497;52.222;21.246;2023-03-24T07:58:13;99582.41;;;13.87;77.68
22662;BME280;11497;52.222;21.246;2023-03-24T08:00:57;99577.28;;;14.14;76.77
22662;BME280;11497;52.222;21.246;2023-03-24T08:03:38;99575.78;;;14.10;77.53
22662;BME280;11497;52.222;21.246;2023-03-24T08:06:16;99566.19;;;14.09;78.31
22662;BME280;11497;52.222;21.246;2023-03-24T08:08:49;99567.88;;;14.10;79.15
22662;BME280;11497;52.222;21.246;2023-03-24T08:11:18;99564.69;;;14.19;79.09
22662;BME280;11497;52.222;21.246;2023-03-24T08:13:45;99567.16;;;14.22;79.40
22662;BME280;11497;52.222;21.246;2023-03-24T08:16:13;99567.97;;;14.09;79.98
22662;BME280;11497;52.222;21.246;2023-03-24T08:18:41;99563.75;;;14.06;81.30
22662;BME280;11497;52.222;21.246;2023-03-24T08:21:09;99568.09;;;14.21;81.03
22662;BME280;11497;52.222;21.246;2023-03-24T08:23:36;99563.19;;;14.15;81.37
22662;BME280;11497;52.222;21.246;2023-03-24T08:26:04;99564.13;;;14.14;81.85
22662;BME280;11497;52.222;21.246;2023-03-24T08:28:33;99561.66;;;13.97;82.82
22662;BME280;11497;52.222;21.246;2023-03-24T08:31:01;99557.53;;;13.79;83.73
22662;BME280;11497;52.222;21.246;2023-03-24T08:33:29;99543.06;;;13.86;84.79
22662;BME280;11497;52.222;21.246;2023-03-24T08:35:58;99541.38;;;13.99;85.28
22662;BME280;11497;52.222;21.246;2023-03-24T08:38:27;99543.81;;;14.02;86.39
22662;BME280;11497;52.222;21.246;2023-03-24T08:41:02;99537.81;;;14.43;87.36
22662;BME280;11497;52.222;21.246;2023-03-24T08:43:34;99528.31;;;14.81;86.71
22662;BME280;11497;52.222;21.246;2023-03-24T08:46:06;99522.91;;;14.97;83.40
22662;BME280;11497;52.222;21.246;2023-03-24T08:48:37;99516.00;;;14.82;82.75
22662;BME280;11497;52.222;21.246;2023-03-24T08:51:12;99511.44;;;14.71;82.98
22662;BME280;11497;52.222;21.246;2023-03-24T08:53:41;99511.22;;;14.74;82.88
22662;BME280;11497;52.222;21.246;2023-03-24T08:56:10;99504.25;;;14.73;82.72
22662;BME280;11497;52.222;21.246;2023-03-24T08:58:38;99493.31;;;14.67;82.61
22662;BME280;11497;52.222;21.246;2023-03-24T09:01:06;99498.13;;;14.60;82.71
22662;BME280;11497;52.222;21.246;2023-03-24T09:03:33;99495.69;;;14.43;83.86
22662;BME280;11497;52.222;21.246;2023-03-24T09:06:02;99490.13;;;14.33;84.55
22662;BME280;11497;52.222;21.246;2023-03-24T09:08:30;99488.75;;;14.27;84.81
22662;BME280;11497;52.222;21.246;2023-03-24T09:10:58;99477.75;;;14.07;85.30
22662;BME280;11497;52.222;21.246;2023-03-24T09:13:26;99471.09;;;14.01;86.33
22662;BME280;11497;52.222;21.246;2023-03-24T09:15:58;99466.41;;;14.06;87.10
22662;BME280;11497;52.222;21.246;2023-03-24T09:18:27;99456.00;;;14.31;86.15
22662;BME280;11497;52.222;21.246;2023-03-24T09:20:55;99457.69;;;14.32;86.12
22662;BME280;11497;52.222;21.246;2023-03-24T09:23:23;99450.16;;;14.41;85.74
22662;BME280;11497;52.222;21.246;2023-03-24T09:25:52;99453.00;;;14.52;84.95
22662;BME280;11497;52.222;21.246;2023-03-24T09:28:22;99450.03;;;14.71;84.98
22662;BME280;11497;52.222;21.246;2023-03-24T09:30:56;99455.69;;;15.04;83.28
22662;BME280;11497;52.222;21.246;2023-03-24T09:33:25;99457.44;;;15.43;82.52
22662;BME280;11497;52.222;21.246;2023-03-24T09:35:58;99438.91;;;16.19;79.82
22662;BME280;11497;52.222;21.246;2023-03-24T09:38:27;99441.16;;;17.32;74.43
22662;BME280;11497;52.222;21.246;2023-03-24T09:40:58;99437.72;;;18.75;70.42
22662;BME280;11497;52.222;21.246;2023-03-24T09:43:55;99428.53;;;18.90;65.43
22662;BME280;11497;52.222;21.246;2023-03-24T09:46:44;99416.50;;;19.28;64.45
22662;BME280;11497;52.222;21.246;2023-03-24T09:49:17;99413.00;;;19.69;62.64
22662;BME280;11497;52.222;21.246;2023-03-24T09:51:53;99412.09;;;19.59;60.98
22662;BME280;11497;52.222;21.246;2023-03-24T09:54:27;99418.63;;;19.76;61.15
22662;BME280;11497;52.222;21.246;2023-03-24T09:56:58;99413.44;;;20.14;60.31
22662;BME280;11497;52.222;21.246;2023-03-24T10:01:57;99416.84;;;20.36;58.49
22662;BME280;11497;52.222;21.246;2023-03-24T10:04:27;99413.19;;;20.27;58.66
22662;BME280;11497;52.222;21.246;2023-03-24T10:07:06;99408.34;;;19.92;57.69
22662;BME280;11497;52.222;21.246;2023-03-24T10:09:36;99397.38;;;19.76;58.44
22662;BME280;11497;52.222;21.246;2023-03-24T10:12:36;99392.31;;;19.73;59.06
22662;BME280;11497;52.222;21.246;2023-03-24T10:15:31;99385.72;;;20.07;58.03
22662;BME280;11497;52.222;21.246;2023-03-24T10:18:27;99386.63;;;20.37;57.42
22662;BME280;11497;52.222;21.246;2023-03-24T10:21:05;99379.81;;;20.44;56.66
22662;BME280;11497;52.222;21.246;2023-03-24T10:26:53;99387.19;;;19.81;56.91
22662;BME280;11497;52.222;21.246;2023-03-24T10:29:34;99388.34;;;19.37;58.30
22662;BME280;11497;52.222;21.246;2023-03-24T10:32:04;99376.88;;;19.06;59.60
22662;BME280;11497;52.222;21.246;2023-03-24T10:34:36;99380.13;;;19.19;60.09
22662;BME280;11497;52.222;21.246;2023-03-24T10:37:05;99372.25;;;18.55;60.14
22662;BME280;11497;52.222;21.246;2023-03-24T10:39:33;99372.19;;;18.34;60.50
22662;BME280;11497;52.222;21.246;2023-03-24T10:42:18;99374.09;;;18.00;61.03
22662;BME280;11497;52.222;21.246;2023-03-24T10:44:51;99374.34;;;17.86;62.38
22662;BME280;11497;52.222;21.246;2023-03-24T10:47:25;99370.00;;;17.96;63.70
22662;BME280;11497;52.222;21.246;2023-03-24T10:49:59;99372.16;;;18.13;64.19
22662;BME280;11497;52.222;21.246;2023-03-24T10:52:41;99366.84;;;18.13;63.97
22662;BME280;11497;52.222;21.246;2023-03-24T10:55:15;99367.47;;;18.06;64.91
22662;BME280;11497;52.222;21.246;2023-03-24T10:57:51;99355.41;;;18.13;65.02
22662;BME280;11497;52.222;21.246;2023-03-24T11:00:23;99357.47;;;18.09;65.24
22662;BME280;11497;52.222;21.246;2023-03-24T11:03:06;99364.84;;;18.38;64.59
22662;BME280;11497;52.222;21.246;2023-03-24T11:05:37;99367.63;;;18.36;64.53
22662;BME280;11497;52.222;21.246;2023-03-24T11:10:48;99360.13;;;17.87;64.59
22662;BME280;11497;52.222;21.246;2023-03-24T11:13:30;99349.56;;;17.65;64.89
22662;BME280;11497;52.222;21.246;2023-03-24T11:16:07;99342.59;;;17.63;64.82
22662;BME280;11497;52.222;21.246;2023-03-24T11:18:36;99346.81;;;17.66;64.53
22662;BME280;11497;52.222;21.246;2023-03-24T11:21:06;99352.66;;;17.47;65.05
22662;BME280;11497;52.222;21.246;2023-03-24T11:23:39;99344.50;;;17.39;65.81
22662;BME280;11497;52.222;21.246;2023-03-24T11:26:20;99339.94;;;17.30;65.72
22662;BME280;11497;52.222;21.246;2023-03-24T11:28:57;99330.53;;;17.37;65.15
22662;BME280;11497;52.222;21.246;2023-03-24T11:31:29;99334.16;;;17.14;65.44
22662;BME280;11497;52.222;21.246;2023-03-24T11:34:12;99326.56;;;17.09;65.41
22662;BME280;11497;52.222;21.246;2023-03-24T11:36:48;99327.66;;;17.18;65.30
22662;BME280;11497;52.222;21.246;2023-03-24T11:39:24;99323.94;;;17.20;65.13
22662;BME280;11497;52.222;21.246;2023-03-24T11:42:14;99314.31;;;17.08;64.92
22662;BME280;11497;52.222;21.246;2023-03-24T11:44:50;99307.94;;;17.11;65.22
22662;BME280;11497;52.222;21.246;2023-03-24T11:47:28;99297.59;;;17.08;65.67
22662;BME280;11497;52.222;21.246;2023-03-24T11:50:00;99297.00;;;17.15;65.44
22662;BME280;11497;52.222;21.246;2023-03-24T11:58:44;99285.59;;;17.71;63.25
22662;BME280;11497;52.222;21.246;2023-03-24T12:12:28;99260.34;;;17.33;63.87
22662;BME280;11497;52.222;21.246;2023-03-24T12:28:51;99246.06;;;18.01;61.40
22662;BME280;11497;52.222;21.246;2023-03-24T12:45:50;99216.25;;;19.63;56.74
22662;BME280;11497;52.222;21.246;2023-03-24T12:52:07;99216.72;;;19.87;54.83
22662;BME280;11497;52.222;21.246;2023-03-24T12:57:10;99209.88;;;20.13;53.70
22662;BME280;11497;52.222;21.246;2023-03-24T12:59:56;99204.84;;;20.10;53.21
22662;BME280;11497;52.222;21.246;2023-03-24T13:02:59;99199.56;;;19.91;53.32
22662;BME280;11497;52.222;21.246;2023-03-24T13:05:31;99201.47;;;19.70;52.99
22662;BME280;11497;52.222;21.246;2023-03-24T13:08:02;99200.34;;;19.63;53.11
22662;BME280;11497;52.222;21.246;2023-03-24T13:10:36;99192.25;;;19.64;52.73
22662;BME280;11497;52.222;21.246;2023-03-24T13:13:15;99200.63;;;19.69;52.88
22662;BME280;11497;52.222;21.246;2023-03-24T13:15:52;99193.50;;;19.70;52.88
22662;BME280;11497;52.222;21.246;2023-03-24T13:18:41;99183.31;;;19.94;52.40
22662;BME280;11497;52.222;21.246;2023-03-24T13:21:15;99188.78;;;19.83;52.22
22662;BME280;11497;52.222;21.246;2023-03-24T13:23:58;99183.59;;;19.81;52.28
22662;BME280;11497;52.222;21.246;2023-03-24T13:27:01;99177.03;;;19.76;51.66
22662;BME280;11497;52.222;21.246;2023-03-24T13:32:28;99175.22;;;19.76;51.89
22662;BME280;11497;52.222;21.246;2023-03-24T13:35:19;99167.13;;;19.87;51.40
22662;BME280;11497;52.222;21.246;2023-03-24T13:37:51;99161.38;;;19.82;51.35
22662;BME280;11497;52.222;21.246;2023-03-24T13:40:23;99161.81;;;19.87;51.18
22662;BME280;11497;52.222;21.246;2023-03-24T13:42:58;99162.25;;;19.92;51.22
22662;BME280;11497;52.222;21.246;2023-03-24T13:50:59;99151.44;;;19.94;50.03
22662;BME280;11497;52.222;21.246;2023-03-24T13:53:33;99148.13;;;19.92;49.83
22662;BME280;11497;52.222;21.246;2023-03-24T13:56:03;99137.06;;;19.97;49.60
22662;BME280;11497;52.222;21.246;2023-03-24T13:59:06;99139.97;;;19.93;49.60
22662;BME280;11497;52.222;21.246;2023-03-24T14:01:42;99135.78;;;20.01;49.28
22662;BME280;11497;52.222;21.246;2023-03-24T14:04:38;99141.09;;;20.10;49.38
22662;BME280;11497;52.222;21.246;2023-03-24T14:10:48;99135.06;;;20.27;48.99
22662;BME280;11497;52.222;21.246;2023-03-24T14:16:26;99129.06;;;20.25;48.74
22662;BME280;11497;52.222;21.246;2023-03-24T14:19:19;99121.25;;;20.14;48.53
22662;BME280;11497;52.222;21.246;2023-03-24T14:24:35;99116.78;;;20.05;48.78
22662;BME280;11497;52.222;21.246;2023-03-24T14:27:39;99110.63;;;20.14;48.66
22662;BME280;11497;52.222;21.246;2023-03-24T14:32:46;99108.69;;;19.97;48.71
22662;BME280;11497;52.222;21.246;2023-03-24T14:35:42;99103.91;;;20.10;48.64
22662;BME280;11497;52.222;21.246;2023-03-24T14:40:44;99098.03;;;20.16;48.91
22662;BME280;11497;52.222;21.246;2023-03-24T14:46:47;99096.22;;;20.07;48.67
22662;BME280;11497;52.222;21.246;2023-03-24T14:49:23;99092.44;;;20.10;48.38
22662;BME280;11497;52.222;21.246;2023-03-24T14:54:53;99074.84;;;19.99;48.79
22662;BME280;11497;52.222;21.246;2023-03-24T14:57:28;99084.91;;;20.05;48.87
22662;BME280;11497;52.222;21.246;2023-03-24T15:00:00;99063.66;;;20.05;48.62
22662;BME280;11497;52.222;21.246;2023-03-24T15:03:00;99073.91;;;19.90;48.62
22662;BME280;11497;52.222;21.246;2023-03-24T15:05:30;99062.59;;;19.79;49.13
22662;BME280;11497;52.222;21.246;2023-03-24T15:08:13;99061.63;;;19.80;48.77
22662;BME280;11497;52.222;21.246;2023-03-24T15:10:54;99062.19;;;19.74;49.05
22662;BME280;11497;52.222;21.246;2023-03-24T15:16:01;99053.09;;;19.47;49.03
22662;BME280;11497;52.222;21.246;2023-03-24T15:18:30;99049.19;;;19.42;49.41
22662;BME280;11497;52.222;21.246;2023-03-24T15:20:58;99045.00;;;19.49;49.34
22662;BME280;11497;52.222;21.246;2023-03-24T15:23:26;99052.53;;;19.34;49.35
22662;BME280;11497;52.222;21.246;2023-03-24T15:25:55;99040.66;;;19.28;49.57
22662;BME280;11497;52.222;21.246;2023-03-24T15:28:26;99040.25;;;19.33;49.42
22662;BME280;11497;52.222;21.246;2023-03-24T15:30:56;99034.38;;;19.20;49.43
22662;BME280;11497;52.222;21.246;2023-03-24T15:33:25;99031.72;;;19.20;49.66
22662;BME280;11497;52.222;21.246;2023-03-24T15:35:58;99031.28;;;19.15;49.61
22662;BME280;11497;52.222;21.246;2023-03-24T15:38:32;99031.28;;;18.96;50.15
22662;BME280;11497;52.222;21.246;2023-03-24T15:41:02;99026.81;;;18.86;50.35
22662;BME280;11497;52.222;21.246;2023-03-24T15:43:31;99028.47;;;18.87;50.32
22662;BME280;11497;52.222;21.246;2023-03-24T15:45:59;99020.50;;;18.78;50.71
22662;BME280;11497;52.222;21.246;2023-03-24T15:48:39;99034.88;;;18.75;50.70
22662;BME280;11497;52.222;21.246;2023-03-24T15:51:08;99024.81;;;18.69;50.85